createdAt,value
2022-12-16T00:01:03.922Z,12.23
2022-12-16T00:02:06.762Z,11.63
2022-12-16T00:03:09.723Z,12.25
2022-12-16T00:04:12.337Z,13.10
2022-12-16T00:05:15.027Z,12.98
2022-12-16T00:06:17.540Z,12.82
2022-12-16T00:07:20.023Z,11.23
2022-12-16T00:08:22.579Z,12.27
2022-12-16T00:09:25.105Z,11.52
2022-12-16T00:10:47.630Z,12.98
2022-12-16T00:11:50.183Z,11.65
2022-12-16T00:12:52.672Z,13.75
2022-12-16T00:13:57.745Z,13.32
2022-12-16T00:15:00.627Z,13.50
2022-12-16T00:16:21.707Z,14.73
2022-12-16T00:17:24.270Z,13.95
2022-12-16T00:18:27.029Z,13.40
2022-12-16T00:19:29.641Z,14.20
2022-12-16T00:20:32.164Z,12.68
2022-12-16T00:21:34.835Z,13.50
2022-12-16T00:22:37.471Z,13.82
2022-12-16T00:23:41.932Z,14.93
2022-12-16T00:24:44.795Z,13.10
2022-12-16T00:25:47.574Z,13.07
2022-12-16T00:26:51.373Z,13.70
2022-12-16T00:27:58.841Z,14.23
2022-12-16T00:29:05.571Z,12.45
2022-12-16T00:30:08.919Z,14.23
2022-12-16T00:31:12.138Z,13.95
2022-12-16T00:32:14.703Z,14.27
2022-12-16T00:33:18.038Z,12.02
2022-12-16T00:34:20.558Z,14.13
2022-12-16T00:35:23.080Z,14.77
2022-12-16T00:36:25.614Z,14.63
2022-12-16T00:37:28.361Z,14.13
2022-12-16T00:38:30.884Z,12.75
2022-12-16T00:39:33.402Z,13.13
2022-12-16T00:40:36.043Z,13.45
2022-12-16T00:41:38.565Z,15.07
2022-12-16T00:42:41.094Z,14.18
2022-12-16T00:43:43.616Z,14.68
2022-12-16T00:44:46.126Z,15.02
2022-12-16T00:45:49.211Z,15.75
2022-12-16T00:46:51.769Z,14.02
2022-12-16T00:47:54.290Z,16.88
2022-12-16T00:48:57.529Z,14.52
2022-12-16T00:50:00.102Z,13.40
2022-12-16T00:51:02.935Z,13.85
2022-12-16T00:52:05.574Z,14.27
2022-12-16T00:53:08.283Z,14.32
2022-12-16T00:54:10.861Z,15.30
2022-12-16T00:55:13.865Z,15.13
2022-12-16T00:56:18.325Z,14.35
2022-12-16T00:57:20.824Z,15.43
2022-12-16T00:58:23.350Z,15.52
2022-12-16T00:59:25.986Z,16.88
2022-12-16T01:00:28.634Z,15.27
2022-12-16T01:01:31.302Z,15.93
2022-12-16T01:02:34.003Z,13.98
2022-12-16T01:03:37.798Z,15.25
2022-12-16T01:04:40.515Z,14.70
2022-12-16T01:05:43.038Z,16.40
2022-12-16T01:06:46.884Z,16.30
2022-12-16T01:07:49.399Z,16.38
2022-12-16T01:08:54.999Z,14.70
2022-12-16T01:09:57.686Z,16.20
2022-12-16T01:11:00.448Z,15.90
2022-12-16T01:12:03.220Z,17.50
2022-12-16T01:13:05.969Z,16.17
2022-12-16T01:14:09.212Z,16.90
2022-12-16T01:15:14.850Z,15.55
2022-12-16T01:16:17.880Z,15.10
2022-12-16T01:17:20.862Z,15.20
2022-12-16T01:18:23.977Z,16.35
2022-12-16T01:19:27.100Z,14.68
2022-12-16T01:20:30.219Z,16.05
2022-12-16T01:21:33.343Z,14.32
2022-12-16T01:22:36.824Z,14.95
2022-12-16T01:23:39.947Z,15.40
2022-12-16T01:24:44.746Z,15.10
2022-12-16T01:25:53.028Z,16.45
2022-12-16T01:26:56.154Z,13.90
2022-12-16T01:27:59.271Z,15.18
2022-12-16T01:29:02.397Z,18.55
2022-12-16T01:30:06.478Z,15.23
2022-12-16T01:31:09.596Z,16.13
2022-12-16T01:32:14.485Z,16.42
2022-12-16T01:33:17.882Z,15.82
2022-12-16T01:34:21.003Z,15.18
2022-12-16T01:35:51.948Z,15.80
2022-12-16T01:36:47.287Z,15.23
2022-12-16T01:37:50.408Z,15.48
2022-12-16T01:38:53.771Z,15.70
2022-12-16T01:39:58.211Z,16.85
2022-12-16T01:41:02.537Z,16.83
2022-12-16T01:42:30.736Z,14.38
2022-12-16T01:43:37.306Z,15.05
2022-12-16T01:44:44.782Z,14.52
2022-12-16T01:45:48.782Z,14.68
2022-12-16T01:47:00.144Z,15.20
2022-12-16T01:48:22.706Z,15.07
2022-12-16T01:49:33.148Z,14.40
2022-12-16T01:50:36.389Z,14.00
2022-12-16T01:51:48.867Z,16.50
2022-12-16T01:52:59.794Z,15.27
2022-12-16T01:54:10.595Z,15.63
2022-12-16T01:56:21.882Z,14.38
2022-12-16T01:57:35.801Z,13.63
2022-12-16T01:58:41.443Z,15.82
2022-12-16T01:59:49.124Z,15.00
2022-12-16T02:00:52.210Z,15.60
2022-12-16T02:01:58.232Z,16.02
2022-12-16T02:03:01.262Z,14.85
2022-12-16T02:04:04.300Z,13.73
2022-12-16T02:05:22.186Z,15.10
2022-12-16T02:06:24.823Z,15.88
2022-12-16T02:07:28.061Z,15.50
2022-12-16T02:08:30.582Z,15.02
2022-12-16T02:09:33.222Z,14.70
2022-12-16T02:10:44.627Z,15.43
2022-12-16T02:12:11.110Z,14.55
2022-12-16T02:13:50.507Z,14.85
2022-12-16T02:15:08.987Z,14.50
2022-12-16T02:16:33.639Z,16.35
2022-12-16T02:17:58.308Z,16.48
2022-12-16T02:19:56.392Z,14.48
2022-12-16T02:21:30.956Z,14.40
2022-12-16T02:23:09.835Z,13.68
2022-12-16T02:24:45.840Z,15.63
2022-12-16T02:26:22.557Z,13.95
2022-12-16T02:27:51.118Z,14.35
2022-12-16T02:29:22.916Z,13.52
2022-12-16T02:30:40.748Z,14.50
2022-12-16T02:31:59.978Z,14.05
2022-12-16T02:33:11.398Z,16.42
2022-12-16T02:34:27.472Z,15.52
2022-12-16T02:35:41.280Z,14.27
2022-12-16T02:37:09.484Z,15.25
2022-12-16T02:38:25.085Z,14.55
2022-12-16T02:40:00.146Z,13.30
2022-12-16T02:41:11.764Z,13.38
2022-12-16T02:42:36.129Z,12.88
2022-12-16T02:44:08.524Z,14.68
2022-12-16T02:45:17.910Z,14.73
2022-12-16T02:46:25.876Z,14.88
2022-12-16T02:47:29.773Z,13.85
2022-12-16T02:48:32.289Z,14.88
2022-12-16T02:49:34.691Z,13.88
2022-12-16T02:50:42.612Z,15.73
2022-12-16T02:51:45.730Z,15.50
2022-12-16T02:52:49.229Z,15.50
2022-12-16T02:53:54.263Z,16.05
2022-12-16T02:55:09.497Z,15.52
2022-12-16T02:56:22.216Z,15.05
2022-12-16T02:57:33.752Z,13.52
2022-12-16T02:58:54.981Z,13.60
2022-12-16T03:00:08.184Z,14.23
2022-12-16T03:01:24.745Z,14.70
2022-12-16T03:02:45.822Z,16.55
2022-12-16T03:04:03.275Z,14.18
2022-12-16T03:05:30.033Z,14.20
2022-12-16T03:06:35.678Z,14.13
2022-12-16T03:07:41.558Z,15.20
2022-12-16T03:08:50.799Z,14.70
2022-12-16T03:09:55.012Z,15.75
2022-12-16T03:11:04.845Z,14.95
2022-12-16T03:12:14.442Z,16.08
2022-12-16T03:13:20.338Z,16.38
2022-12-16T03:14:27.526Z,15.02
2022-12-16T03:15:34.248Z,15.45
2022-12-16T03:16:36.929Z,16.08
2022-12-16T03:17:40.375Z,16.38
2022-12-16T03:18:48.173Z,15.07
2022-12-16T03:20:01.739Z,15.18
2022-12-16T03:21:08.339Z,16.50
2022-12-16T03:22:20.578Z,15.57
2022-12-16T03:23:34.771Z,15.88
2022-12-16T03:24:39.788Z,15.63
2022-12-16T03:25:46.151Z,14.93
2022-12-16T03:27:07.507Z,15.98
2022-12-16T03:28:39.551Z,14.50
2022-12-16T03:29:51.071Z,14.35
2022-12-16T03:31:05.868Z,14.40
2022-12-16T03:32:16.156Z,13.73
2022-12-16T03:33:42.442Z,15.95
2022-12-16T03:34:52.524Z,16.15
2022-12-16T03:36:02.603Z,15.45
2022-12-16T03:37:08.850Z,13.73
2022-12-16T03:38:14.725Z,17.42
2022-12-16T03:39:20.377Z,16.83
2022-12-16T03:40:27.334Z,17.73
2022-12-16T03:41:32.492Z,17.42
2022-12-16T03:42:37.052Z,16.88
2022-12-16T03:43:40.297Z,16.95
2022-12-16T03:44:47.016Z,15.82
2022-12-16T03:45:55.571Z,15.38
2022-12-16T03:46:59.383Z,16.50
2022-12-16T03:48:02.622Z,17.20
2022-12-16T03:49:06.115Z,16.80
2022-12-16T03:50:09.705Z,17.45
2022-12-16T03:51:13.065Z,16.13
2022-12-16T03:52:16.548Z,16.60
2022-12-16T03:53:19.668Z,18.30
2022-12-16T03:54:23.871Z,18.63
2022-12-16T03:55:26.755Z,16.10
2022-12-16T03:56:29.514Z,16.95
2022-12-16T03:57:32.276Z,16.42
2022-12-16T03:58:35.882Z,20.17
2022-12-16T03:59:38.760Z,19.98
2022-12-16T04:00:41.523Z,18.67
2022-12-16T04:01:44.418Z,18.35
2022-12-16T04:02:47.892Z,17.92
2022-12-16T04:03:50.838Z,20.52
2022-12-16T04:04:53.409Z,18.67
2022-12-16T04:05:56.050Z,18.45
2022-12-16T04:07:17.412Z,19.95
2022-12-16T04:08:19.984Z,17.85
2022-12-16T04:09:22.578Z,19.40
2022-12-16T04:10:44.058Z,17.55
2022-12-16T04:12:05.660Z,17.95
2022-12-16T04:13:28.388Z,17.38
2022-12-16T04:14:53.378Z,18.35
2022-12-16T04:16:15.090Z,15.88
2022-12-16T04:17:36.309Z,17.33
2022-12-16T04:18:59.671Z,17.88
2022-12-16T04:20:31.749Z,18.50
2022-12-16T04:21:52.873Z,16.48
2022-12-16T04:23:18.552Z,18.33
2022-12-16T04:24:26.808Z,15.93
2022-12-16T04:25:37.516Z,15.73
2022-12-16T04:28:00.801Z,16.38
2022-12-16T04:29:03.315Z,16.98
2022-12-16T04:30:22.341Z,17.98
2022-12-16T04:31:25.004Z,17.05
2022-12-16T04:32:27.917Z,17.67
2022-12-16T04:33:50.121Z,16.75
2022-12-16T04:34:53.223Z,17.10
2022-12-16T04:36:14.479Z,17.98
2022-12-16T04:37:35.720Z,15.10
2022-12-16T04:38:56.966Z,17.17
2022-12-16T04:40:18.086Z,17.90
2022-12-16T04:41:39.327Z,16.77
2022-12-16T04:43:00.444Z,14.98
2022-12-16T04:45:43.166Z,17.17
2022-12-16T04:47:04.170Z,17.05
2022-12-16T04:49:45.929Z,13.98
2022-12-16T04:51:07.050Z,15.50
2022-12-16T04:52:28.290Z,17.13
2022-12-16T04:53:49.413Z,17.15
2022-12-16T04:55:10.531Z,15.18
2022-12-16T04:56:31.652Z,15.70
2022-12-16T04:57:52.896Z,15.95
2022-12-16T04:59:14.146Z,17.90
2022-12-16T05:00:35.519Z,15.25
2022-12-16T05:01:56.843Z,16.30
2022-12-16T05:03:18.151Z,15.60
2022-12-16T05:04:39.468Z,16.73
2022-12-16T05:06:01.308Z,15.88
2022-12-16T05:07:22.552Z,17.63
2022-12-16T05:08:43.793Z,16.50
2022-12-16T05:10:04.913Z,15.32
2022-12-16T05:11:26.278Z,17.02
2022-12-16T05:12:47.525Z,14.15
2022-12-16T05:14:08.655Z,17.50
2022-12-16T05:15:29.885Z,17.02
2022-12-16T05:16:51.136Z,16.63
2022-12-16T05:18:12.373Z,15.18
2022-12-16T05:19:33.743Z,15.93
2022-12-16T05:21:02.775Z,15.57
2022-12-16T05:22:24.254Z,15.68
2022-12-16T05:23:45.860Z,15.23
2022-12-16T05:25:07.110Z,16.17
2022-12-16T05:26:28.581Z,15.80
2022-12-16T05:27:50.424Z,13.90
2022-12-16T05:29:12.028Z,13.85
2022-12-16T05:30:33.991Z,14.32
2022-12-16T05:31:55.710Z,15.27
2022-12-16T05:33:17.073Z,12.63
2022-12-16T05:34:38.793Z,14.02
2022-12-16T05:36:00.280Z,14.55
2022-12-16T05:37:21.880Z,16.08
2022-12-16T05:38:43.480Z,15.90
2022-12-16T05:40:05.204Z,14.60
2022-12-16T05:41:26.809Z,14.20
2022-12-16T05:42:48.286Z,14.52
2022-12-16T05:44:09.531Z,14.10
2022-12-16T05:45:31.252Z,12.70
2022-12-16T05:46:53.093Z,13.63
2022-12-16T05:48:14.818Z,14.27
2022-12-16T05:49:36.899Z,12.65
2022-12-16T05:50:58.741Z,13.20
2022-12-16T05:52:20.474Z,12.98
2022-12-16T05:53:42.424Z,13.18
2022-12-16T05:55:04.149Z,14.13
2022-12-16T05:56:25.991Z,13.95
2022-12-16T05:57:47.831Z,13.55
2022-12-16T05:59:13.880Z,14.77
2022-12-16T06:00:35.365Z,15.00
2022-12-16T06:01:56.915Z,13.73
2022-12-16T06:03:18.553Z,13.45
2022-12-16T06:04:40.100Z,13.77
2022-12-16T06:06:01.045Z,12.38
2022-12-16T06:07:22.101Z,14.20
2022-12-16T06:10:04.100Z,12.10
2022-12-16T06:11:25.294Z,11.63
2022-12-16T06:12:47.785Z,11.88
2022-12-16T06:14:09.146Z,12.13
2022-12-16T06:15:30.387Z,13.35
2022-12-16T06:16:51.793Z,12.60
2022-12-16T06:18:13.065Z,12.13
2022-12-16T06:19:34.230Z,11.85
2022-12-16T06:20:57.390Z,11.98
2022-12-16T06:22:18.891Z,11.90
2022-12-16T06:23:40.914Z,13.40
2022-12-16T06:25:01.951Z,11.55
2022-12-16T06:27:44.074Z,10.98
2022-12-16T06:30:26.796Z,10.90
2022-12-16T06:31:47.848Z,12.32
2022-12-16T06:33:08.891Z,13.30
2022-12-16T06:34:29.797Z,13.55
2022-12-16T06:37:11.560Z,13.07
2022-12-16T06:38:32.802Z,13.10
2022-12-16T06:39:54.041Z,16.23
2022-12-16T06:41:15.412Z,15.57
2022-12-16T06:42:36.527Z,13.75
2022-12-16T06:43:57.766Z,14.77
2022-12-16T06:45:18.766Z,14.55
2022-12-16T06:48:02.929Z,12.00
2022-12-16T06:49:24.174Z,12.82
2022-12-16T06:50:45.408Z,12.88
2022-12-16T06:52:06.670Z,14.80
2022-12-16T06:53:27.650Z,14.63
2022-12-16T06:54:49.016Z,14.80
2022-12-16T06:56:10.253Z,13.98
2022-12-16T06:57:51.293Z,16.38
2022-12-16T06:59:12.297Z,13.18
2022-12-16T07:01:54.742Z,13.45
2022-12-16T07:03:15.823Z,15.00
2022-12-16T07:05:57.305Z,11.80
2022-12-16T07:07:18.545Z,13.50
2022-12-16T07:08:39.787Z,13.02
2022-12-16T07:10:01.030Z,13.73
2022-12-16T07:11:22.273Z,14.52
2022-12-16T07:12:43.395Z,15.18
2022-12-16T07:14:04.765Z,13.32
2022-12-16T07:15:26.494Z,14.20
2022-12-16T07:16:47.824Z,14.10
2022-12-16T07:18:09.207Z,14.23
2022-12-16T07:19:30.332Z,17.35
2022-12-16T07:20:51.690Z,13.98
2022-12-16T07:22:16.052Z,15.98
2022-12-16T07:23:37.411Z,15.98
2022-12-16T07:24:58.894Z,15.23
2022-12-16T07:26:20.375Z,16.13
2022-12-16T07:27:41.980Z,14.70
2022-12-16T07:29:03.581Z,15.50
2022-12-16T07:30:25.784Z,13.43
2022-12-16T07:31:47.583Z,15.77
2022-12-16T07:33:09.707Z,13.85
2022-12-16T07:34:34.544Z,16.00
2022-12-16T07:36:02.399Z,16.23
2022-12-16T07:37:24.113Z,14.70
2022-12-16T07:38:45.602Z,15.52
2022-12-16T07:40:06.963Z,15.75
2022-12-16T07:41:28.561Z,15.10
2022-12-16T07:42:50.405Z,16.77
2022-12-16T07:44:12.014Z,14.73
2022-12-16T07:45:33.779Z,15.02
2022-12-16T07:46:55.408Z,15.48
2022-12-16T07:48:17.053Z,15.70
2022-12-16T07:49:38.655Z,15.63
2022-12-16T07:51:00.739Z,16.92
2022-12-16T07:52:22.344Z,15.48
2022-12-16T07:53:45.143Z,15.10
2022-12-16T07:55:06.505Z,16.33
2022-12-16T07:56:29.198Z,16.83
2022-12-16T07:57:50.670Z,14.52
2022-12-16T07:59:12.630Z,14.50
2022-12-16T08:00:34.473Z,14.13
2022-12-16T08:01:56.286Z,14.90
2022-12-16T08:03:17.955Z,16.15
2022-12-16T08:04:39.762Z,16.60
2022-12-16T08:06:01.123Z,16.02
2022-12-16T08:07:22.483Z,15.95
2022-12-16T08:08:43.726Z,15.30
2022-12-16T08:10:05.024Z,14.10
2022-12-16T08:11:26.330Z,15.73
2022-12-16T08:12:47.812Z,16.80
2022-12-16T08:14:10.138Z,15.48
2022-12-16T08:15:31.799Z,13.30
2022-12-16T08:16:53.143Z,14.68
2022-12-16T08:18:14.628Z,13.07
2022-12-16T08:19:35.953Z,13.27
2022-12-16T08:20:57.108Z,13.73
2022-12-16T08:22:19.791Z,11.95
2022-12-16T08:23:41.031Z,13.00
2022-12-16T08:26:22.672Z,11.57
2022-12-16T08:32:06.722Z,11.43
2022-12-16T08:33:27.806Z,13.30
2022-12-16T08:34:48.859Z,13.13
2022-12-16T08:36:10.080Z,12.98
2022-12-16T08:37:31.081Z,14.55
2022-12-16T08:40:41.123Z,11.93
2022-12-16T08:44:37.443Z,10.65
2022-12-16T08:46:00.305Z,11.88
2022-12-16T08:47:21.621Z,11.73
2022-12-16T08:48:42.734Z,11.57
2022-12-16T08:50:03.972Z,11.85
2022-12-16T08:51:25.810Z,11.25
2022-12-16T08:52:47.409Z,13.27
2022-12-16T08:54:08.769Z,12.75
2022-12-16T08:55:30.252Z,12.18
2022-12-16T08:56:51.369Z,11.80
2022-12-16T08:58:13.661Z,13.15
2022-12-16T08:59:34.818Z,11.98
2022-12-16T09:00:57.024Z,11.75
2022-12-16T09:02:19.619Z,12.93
2022-12-16T09:03:40.756Z,12.82
2022-12-16T09:06:22.703Z,12.63
2022-12-16T09:07:43.944Z,12.63
2022-12-16T09:09:05.189Z,12.27
2022-12-16T09:10:26.444Z,11.70
2022-12-16T09:11:47.668Z,11.30
2022-12-16T09:13:08.927Z,12.15
2022-12-16T09:14:29.918Z,13.43
2022-12-16T09:15:51.219Z,11.07
2022-12-16T09:17:12.837Z,11.90
2022-12-16T09:18:34.124Z,11.45
2022-12-16T09:19:55.345Z,11.57
2022-12-16T09:21:17.444Z,11.48
2022-12-16T09:22:38.689Z,11.77
2022-12-16T09:24:00.171Z,12.43
2022-12-16T09:25:21.052Z,12.40
2022-12-16T09:28:03.418Z,12.50
2022-12-16T09:29:24.778Z,13.23
2022-12-16T09:30:46.347Z,12.88
2022-12-16T09:32:07.744Z,12.20
2022-12-16T09:33:30.480Z,11.70
2022-12-16T09:34:54.427Z,13.40
2022-12-16T09:36:16.029Z,11.27
2022-12-16T09:37:37.513Z,12.43
2022-12-16T09:38:59.119Z,13.32
2022-12-16T09:40:20.715Z,13.15
2022-12-16T09:41:57.440Z,13.05
2022-12-16T09:43:35.293Z,12.65
2022-12-16T09:45:09.088Z,11.63
2022-12-16T09:46:40.241Z,12.18
2022-12-16T09:48:17.133Z,14.10
2022-12-16T09:49:47.254Z,12.82
2022-12-16T09:51:13.416Z,12.48
2022-12-16T09:52:37.180Z,13.07
2022-12-16T09:54:01.778Z,13.25
2022-12-16T09:55:25.062Z,12.65
2022-12-16T09:56:52.301Z,14.85
2022-12-16T09:58:17.385Z,10.82
2022-12-16T09:59:48.587Z,12.02
2022-12-16T10:01:10.823Z,13.25
2022-12-16T10:02:36.936Z,13.80
2022-12-16T10:03:58.810Z,12.90
2022-12-16T10:05:20.756Z,14.55
2022-12-16T10:07:00.602Z,15.20
2022-12-16T10:08:51.601Z,14.18
2022-12-16T10:10:48.004Z,13.70
2022-12-16T10:12:37.501Z,15.85
2022-12-16T10:14:19.193Z,13.63
2022-12-16T10:15:48.675Z,16.20
2022-12-16T10:17:30.499Z,14.98
2022-12-16T10:19:03.499Z,14.75
2022-12-16T10:20:49.343Z,14.10
2022-12-16T10:22:22.834Z,14.40
2022-12-16T10:24:13.467Z,14.27
2022-12-16T10:25:45.269Z,15.00
2022-12-16T10:27:15.912Z,15.30
2022-12-16T10:28:57.036Z,13.75
2022-12-16T10:31:39.463Z,12.77
2022-12-16T10:33:04.996Z,14.75
2022-12-16T10:34:33.318Z,13.48
2022-12-16T10:36:00.563Z,14.63
2022-12-16T10:37:21.642Z,16.25
2022-12-16T10:40:17.462Z,15.63
2022-12-16T10:41:45.800Z,16.92
2022-12-16T10:43:22.205Z,17.45
2022-12-16T10:44:54.460Z,16.45
2022-12-16T10:46:18.646Z,17.77
2022-12-16T10:47:40.044Z,19.15
2022-12-16T10:49:01.626Z,16.13
2022-12-16T10:50:22.775Z,17.85
2022-12-16T10:51:48.086Z,15.60
2022-12-16T10:53:16.769Z,14.13
2022-12-16T10:54:41.008Z,15.70
2022-12-16T10:56:20.250Z,14.82
2022-12-16T10:58:06.345Z,18.02
2022-12-16T10:59:28.423Z,14.32
2022-12-16T11:01:03.212Z,15.50
2022-12-16T11:02:40.313Z,14.35
2022-12-16T11:04:01.707Z,12.38
2022-12-16T11:05:42.336Z,14.15
2022-12-16T11:07:03.456Z,14.35
2022-12-16T11:08:59.382Z,13.68
2022-12-16T11:11:03.351Z,12.32
2022-12-16T11:12:39.946Z,12.00
2022-12-16T11:14:01.202Z,14.45
2022-12-16T11:15:42.149Z,13.32
2022-12-16T11:18:29.279Z,12.07
2022-12-16T11:19:50.424Z,13.90
2022-12-16T11:21:27.243Z,14.15
2022-12-16T11:22:48.490Z,13.52
2022-12-16T11:24:26.053Z,13.45
2022-12-16T11:25:47.170Z,12.40
2022-12-16T11:27:21.619Z,13.30
2022-12-16T11:28:42.979Z,14.13
2022-12-16T11:30:13.141Z,14.18
2022-12-16T11:31:35.970Z,15.23
2022-12-16T11:33:01.378Z,13.70
2022-12-16T11:34:23.543Z,12.95
2022-12-16T11:35:48.147Z,15.73
2022-12-16T11:37:11.300Z,13.98
2022-12-16T11:38:42.389Z,13.10
2022-12-16T11:40:04.110Z,15.10
2022-12-16T11:41:27.307Z,13.85
2022-12-16T11:42:51.995Z,14.95
2022-12-16T11:44:17.197Z,15.38
2022-12-16T11:45:40.364Z,13.30
2022-12-16T11:47:02.350Z,13.73
2022-12-16T11:48:35.574Z,15.63
2022-12-16T11:49:57.167Z,14.32
2022-12-16T11:51:20.691Z,15.50
2022-12-16T11:52:42.890Z,15.15
2022-12-16T11:54:13.736Z,13.50
2022-12-16T11:56:07.653Z,14.32
2022-12-16T11:58:13.619Z,12.20
2022-12-16T11:59:57.433Z,13.05
2022-12-16T12:01:31.343Z,13.90
2022-12-16T12:03:15.064Z,13.85
2022-12-16T12:04:36.879Z,13.98
2022-12-16T12:06:09.554Z,14.13
2022-12-16T12:08:07.802Z,15.48
2022-12-16T12:09:44.840Z,13.95
2022-12-16T12:11:09.800Z,13.13
2022-12-16T12:12:40.164Z,15.10
2022-12-16T12:14:47.183Z,15.13
2022-12-16T12:16:33.981Z,14.13
2022-12-16T12:18:00.143Z,15.50
2022-12-16T12:20:01.222Z,15.13
2022-12-16T12:21:30.508Z,13.75
2022-12-16T12:22:53.619Z,14.48
2022-12-16T12:24:21.509Z,15.60
2022-12-16T12:25:54.634Z,13.88
2022-12-16T12:27:54.708Z,14.30
2022-12-16T12:29:37.557Z,14.07
2022-12-16T12:31:13.540Z,15.13
2022-12-16T12:32:57.597Z,15.85
2022-12-16T12:34:28.202Z,14.43
2022-12-16T12:36:13.128Z,16.77
2022-12-16T12:37:52.206Z,15.73
2022-12-16T12:39:19.956Z,16.63
2022-12-16T12:40:58.476Z,16.33
2022-12-16T12:42:24.397Z,15.27
2022-12-16T12:44:06.496Z,15.50
2022-12-16T12:45:33.523Z,16.02
2022-12-16T12:47:13.433Z,16.83
2022-12-16T12:48:43.362Z,14.95
2022-12-16T12:50:04.727Z,17.25
2022-12-16T12:51:44.686Z,18.27
2022-12-16T12:53:20.804Z,15.38
2022-12-16T12:55:14.329Z,16.88
2022-12-16T12:57:01.250Z,15.30
2022-12-16T12:58:23.580Z,14.35
2022-12-16T13:00:00.199Z,15.57
2022-12-16T13:01:25.884Z,15.38
2022-12-16T13:02:59.777Z,16.85
2022-12-16T13:04:30.546Z,15.88
2022-12-16T13:05:53.813Z,16.73
2022-12-16T13:07:16.016Z,16.30
2022-12-16T13:08:55.983Z,15.40
2022-12-16T13:10:34.264Z,16.58
2022-12-16T13:11:56.946Z,15.80
2022-12-16T13:13:36.580Z,14.98
2022-12-16T13:14:58.266Z,14.70
2022-12-16T13:16:23.678Z,16.48
2022-12-16T13:17:44.591Z,16.15
2022-12-16T13:19:09.465Z,17.08
2022-12-16T13:20:52.649Z,16.88
2022-12-16T13:22:13.997Z,15.90
2022-12-16T13:23:48.573Z,16.63
2022-12-16T13:25:10.524Z,16.80
2022-12-16T13:26:34.891Z,16.52
2022-12-16T13:28:15.930Z,14.95
2022-12-16T13:29:49.051Z,16.65
2022-12-16T13:31:25.593Z,16.85
2022-12-16T13:32:47.615Z,15.73
2022-12-16T13:34:11.625Z,16.67
2022-12-16T13:35:36.819Z,17.23
2022-12-16T13:36:59.262Z,15.55
2022-12-16T13:38:40.549Z,15.75
2022-12-16T13:41:45.591Z,15.70
2022-12-16T13:43:10.791Z,16.08
2022-12-16T13:45:00.962Z,15.60
2022-12-16T13:46:25.155Z,15.75
2022-12-16T13:48:01.984Z,14.73
2022-12-16T13:50:06.125Z,16.52
2022-12-16T13:51:27.845Z,16.65
2022-12-16T13:53:08.170Z,17.98
2022-12-16T13:54:29.652Z,18.13
2022-12-16T13:55:59.412Z,16.50
2022-12-16T13:57:22.334Z,17.08
2022-12-16T13:59:00.896Z,16.80
2022-12-16T14:00:24.501Z,16.00
2022-12-16T14:01:55.051Z,17.33
2022-12-16T14:03:17.469Z,17.40
2022-12-16T14:04:48.507Z,15.63
2022-12-16T14:07:35.311Z,17.10
2022-12-16T14:09:00.514Z,17.75
2022-12-16T14:10:34.236Z,18.23
2022-12-16T14:12:17.440Z,19.50
2022-12-16T14:13:49.601Z,18.75
2022-12-16T14:15:19.366Z,18.60
2022-12-16T14:16:50.764Z,16.50
2022-12-16T14:18:15.415Z,18.90
2022-12-16T14:19:36.770Z,17.60
2022-12-16T14:21:09.895Z,16.63
2022-12-16T14:22:42.950Z,18.55
2022-12-16T14:24:12.223Z,17.70
2022-12-16T14:25:37.263Z,17.92
2022-12-16T14:26:58.985Z,19.48
2022-12-16T14:28:20.225Z,16.73
2022-12-16T14:29:46.310Z,18.67
2022-12-16T14:31:07.560Z,19.35
2022-12-16T14:32:40.751Z,18.77
2022-12-16T14:34:01.911Z,18.15
2022-12-16T14:35:25.640Z,16.70
2022-12-16T14:36:47.634Z,16.50
2022-12-16T14:38:08.610Z,16.92
2022-12-16T14:39:50.766Z,19.67
2022-12-16T14:41:12.263Z,18.35
2022-12-16T14:42:48.477Z,18.48
2022-12-16T14:44:09.721Z,17.52
2022-12-16T14:45:51.659Z,18.45
2022-12-16T14:47:12.978Z,19.63
2022-12-16T14:48:44.503Z,20.65
2022-12-16T14:50:12.389Z,19.20
2022-12-16T14:51:54.482Z,21.05
2022-12-16T14:53:36.242Z,20.85
2022-12-16T14:55:02.166Z,19.40
2022-12-16T14:56:49.818Z,21.55
2022-12-16T14:58:25.210Z,20.80
2022-12-16T14:59:46.600Z,18.63
2022-12-16T15:01:15.356Z,19.45
2022-12-16T15:02:58.857Z,21.50
2022-12-16T15:04:24.561Z,19.63
2022-12-16T15:05:51.374Z,20.77
2022-12-16T15:07:15.258Z,21.15
2022-12-16T15:08:37.831Z,21.17
2022-12-16T15:10:12.638Z,20.50
2022-12-16T15:11:37.245Z,21.55
2022-12-16T15:13:02.178Z,20.05
2022-12-16T15:14:24.260Z,20.15
2022-12-16T15:16:02.198Z,21.48
2022-12-16T15:17:23.582Z,21.77
2022-12-16T15:18:48.275Z,20.40
2022-12-16T15:20:11.675Z,20.02
2022-12-16T15:21:32.793Z,21.85
2022-12-16T15:22:54.057Z,22.63
2022-12-16T15:24:15.159Z,22.27
2022-12-16T15:27:02.808Z,18.95
2022-12-16T15:28:24.162Z,22.08
2022-12-16T15:29:54.285Z,22.35
2022-12-16T15:31:15.719Z,22.95
2022-12-16T15:32:54.437Z,23.38
2022-12-16T15:34:36.533Z,24.67
2022-12-16T15:35:57.900Z,24.15
2022-12-16T15:37:19.137Z,24.33
2022-12-16T15:38:47.463Z,24.08
2022-12-16T15:40:09.062Z,23.08
2022-12-16T15:41:43.025Z,22.83
2022-12-16T15:43:10.147Z,22.42
2022-12-16T15:44:40.512Z,22.48
2022-12-16T15:46:08.777Z,20.45
2022-12-16T15:47:57.205Z,22.85
2022-12-16T15:49:19.037Z,21.02
2022-12-16T15:50:45.559Z,21.75
2022-12-16T15:52:10.520Z,24.30
2022-12-16T15:53:48.890Z,23.83
2022-12-16T15:55:13.530Z,24.50
2022-12-16T15:56:40.888Z,22.70
2022-12-16T15:58:15.573Z,22.95
2022-12-16T15:59:49.057Z,22.42
2022-12-16T16:01:17.180Z,24.30
2022-12-16T16:02:42.803Z,23.55
2022-12-16T16:04:12.941Z,23.88
2022-12-16T16:05:39.224Z,24.63
2022-12-16T16:07:06.706Z,23.23
2022-12-16T16:08:30.589Z,24.08
2022-12-16T16:09:54.853Z,24.08
2022-12-16T16:11:16.675Z,22.98
2022-12-16T16:12:40.316Z,22.08
2022-12-16T16:14:07.223Z,24.38
2022-12-16T16:15:33.201Z,23.92
2022-12-16T16:16:54.483Z,23.75
2022-12-16T16:18:18.364Z,23.42
2022-12-16T16:19:43.619Z,24.25
2022-12-16T16:21:05.531Z,25.52
2022-12-16T16:22:31.980Z,23.52
2022-12-16T16:23:53.180Z,23.70
2022-12-16T16:25:14.226Z,25.50
2022-12-16T16:26:38.826Z,24.63
2022-12-16T16:27:59.946Z,24.25
2022-12-16T16:29:22.144Z,24.02
2022-12-16T16:30:43.325Z,31.55
2022-12-16T16:32:04.738Z,36.15
2022-12-16T16:33:26.231Z,38.08
2022-12-16T16:34:47.111Z,32.45
2022-12-16T16:36:08.230Z,30.40
2022-12-16T16:37:35.492Z,26.60
2022-12-16T16:38:56.950Z,26.27
2022-12-16T16:40:19.005Z,30.63
2022-12-16T16:41:39.913Z,28.70
2022-12-16T16:43:01.034Z,29.42
2022-12-16T16:44:22.253Z,25.00
2022-12-16T16:45:44.355Z,25.95
2022-12-16T16:47:06.141Z,24.92
2022-12-16T16:48:31.758Z,24.17
2022-12-16T16:50:05.601Z,25.85
2022-12-16T16:51:26.945Z,26.27
2022-12-16T16:52:48.203Z,27.42
2022-12-16T16:54:09.324Z,27.85
2022-12-16T16:55:41.244Z,27.80
2022-12-16T16:57:02.128Z,28.92
2022-12-16T16:58:26.963Z,27.63
2022-12-16T16:59:48.485Z,28.92
2022-12-16T17:01:10.193Z,28.55
2022-12-16T17:02:41.494Z,30.73
2022-12-16T17:04:03.241Z,27.90
2022-12-16T17:05:24.818Z,43.47
2022-12-16T17:06:46.180Z,39.22
2022-12-16T17:08:07.536Z,32.25
2022-12-16T17:09:28.657Z,32.13
2022-12-16T17:10:50.015Z,29.85
2022-12-16T17:12:11.267Z,32.67
2022-12-16T17:13:32.680Z,34.10
2022-12-16T17:14:53.976Z,31.98
2022-12-16T17:17:35.625Z,28.30
2022-12-16T17:20:17.271Z,25.15
2022-12-16T17:21:38.630Z,26.75
2022-12-16T17:22:59.758Z,29.65
2022-12-16T17:24:20.995Z,29.60
2022-12-16T17:25:42.604Z,27.40
2022-12-16T17:27:04.316Z,25.30
2022-12-16T17:28:25.679Z,30.02
2022-12-16T17:29:47.523Z,32.15
2022-12-16T17:31:09.336Z,29.60
2022-12-16T17:32:30.965Z,28.98
2022-12-16T17:33:52.567Z,27.75
2022-12-16T17:35:14.654Z,30.33
2022-12-16T17:36:36.852Z,28.73
2022-12-16T17:37:58.457Z,32.63
2022-12-16T17:39:19.820Z,34.70
2022-12-16T17:40:41.555Z,31.52
2022-12-16T17:42:03.505Z,33.20
2022-12-16T17:43:25.105Z,29.50
2022-12-16T17:44:46.705Z,29.17
2022-12-16T17:46:19.650Z,29.63
2022-12-16T17:47:41.310Z,28.38
2022-12-16T17:49:03.032Z,29.55
2022-12-16T17:50:24.995Z,30.17
2022-12-16T17:51:46.242Z,30.00
2022-12-16T17:53:07.732Z,30.55
2022-12-16T17:54:29.777Z,29.98
2022-12-16T17:55:52.726Z,28.88
2022-12-16T17:57:14.325Z,31.25
2022-12-16T17:58:35.810Z,28.73
2022-12-16T17:59:57.298Z,29.67
2022-12-16T18:01:25.485Z,29.65